createdAt,value
2019-04-20T00:01:36.913Z,102080.23
2019-04-20T00:04:09.924Z,102083.77
2019-04-20T00:06:46.041Z,102077.92
2019-04-20T00:09:18.284Z,102084.16
2019-04-20T00:11:53.577Z,102083.70
2019-04-20T00:14:19.250Z,102080.14
2019-04-20T00:16:44.269Z,102069.40
2019-04-20T00:19:21.697Z,102078.37
2019-04-20T00:21:56.153Z,102075.66
2019-04-20T00:24:27.283Z,102075.41
2019-04-20T00:27:13.617Z,102070.56
2019-04-20T00:29:45.235Z,102066.33
2019-04-20T00:32:10.554Z,102068.09
2019-04-20T00:34:33.949Z,102064.91
2019-04-20T00:37:00.306Z,102061.00
2019-04-20T00:39:30.026Z,102066.55
2019-04-20T00:42:04.428Z,102059.46
2019-04-20T00:44:35.827Z,102061.75
2019-04-20T00:47:12.013Z,102057.80
2019-04-20T00:49:48.280Z,102059.74
2019-04-20T00:52:27.395Z,102057.42
2019-04-20T00:54:36.947Z,102063.05
2019-04-20T00:57:20.341Z,102060.61
2019-04-20T01:00:03.330Z,102061.99
2019-04-20T01:02:22.126Z,102057.23
2019-04-20T01:04:58.028Z,102057.30
2019-04-20T01:07:27.412Z,102063.52
2019-04-20T01:10:02.911Z,102056.72
2019-04-20T01:12:35.066Z,102060.10
2019-04-20T01:15:09.918Z,102064.05
2019-04-20T01:17:37.765Z,102060.94
2019-04-20T01:20:09.368Z,102062.73
2019-04-20T01:22:44.565Z,102064.15
2019-04-20T01:25:20.918Z,102061.00
2019-04-20T01:28:02.275Z,102060.03
2019-04-20T01:30:25.177Z,102057.97
2019-04-20T01:33:02.483Z,102067.78
2019-04-20T01:35:35.593Z,102061.95
2019-04-20T01:38:08.530Z,102058.53
2019-04-20T01:40:21.584Z,102061.09
2019-04-20T01:42:51.314Z,102062.92
2019-04-20T01:45:27.486Z,102068.23
2019-04-20T01:47:54.999Z,102069.81
2019-04-20T01:50:27.661Z,102074.17
2019-04-20T01:53:08.282Z,102067.80
2019-04-20T01:55:56.105Z,102067.17
2019-04-20T01:58:30.280Z,102068.23
2019-04-20T02:00:44.013Z,102077.95
2019-04-20T02:03:38.475Z,102074.70
2019-04-20T02:06:11.673Z,102072.78
2019-04-20T02:08:39.924Z,102076.96
2019-04-20T02:11:17.806Z,102075.98
2019-04-20T02:13:48.085Z,102081.70
2019-04-20T02:16:22.922Z,102082.21
2019-04-20T02:19:02.088Z,102082.87
2019-04-20T02:21:33.530Z,102083.84
2019-04-20T02:23:53.121Z,102087.59
2019-04-20T02:26:17.950Z,102089.83
2019-04-20T02:29:14.512Z,102086.43
2019-04-20T02:34:39.122Z,102093.93
2019-04-20T02:37:15.086Z,102090.59
2019-04-20T02:42:29.334Z,102095.08
2019-04-20T02:45:01.336Z,102097.89
2019-04-20T02:47:30.615Z,102093.20
2019-04-20T02:50:07.445Z,102098.45
2019-04-20T02:52:34.013Z,102095.75
2019-04-20T02:55:04.421Z,102092.31
2019-04-20T02:57:32.705Z,102091.90
2019-04-20T03:02:18.533Z,102093.99
2019-04-20T03:04:40.246Z,102091.03
2019-04-20T03:07:15.257Z,102095.41
2019-04-20T03:09:55.088Z,102096.41
2019-04-20T03:12:29.127Z,102093.50
2019-04-20T03:14:54.071Z,102085.00
2019-04-20T03:17:32.629Z,102095.95
2019-04-20T03:19:54.989Z,102091.93
2019-04-20T03:22:47.907Z,102089.23
2019-04-20T03:25:06.324Z,102093.14
2019-04-20T03:27:34.406Z,102082.77
2019-04-20T03:30:39.515Z,102090.67
2019-04-20T03:33:04.397Z,102084.49
2019-04-20T03:35:22.355Z,102082.95
2019-04-20T03:37:56.306Z,102099.52
2019-04-20T03:40:19.333Z,102088.23
2019-04-20T03:42:34.890Z,102095.02
2019-04-20T03:45:12.465Z,102098.13
2019-04-20T03:47:49.774Z,102095.53
2019-04-20T03:50:37.581Z,102101.34
2019-04-20T03:53:08.395Z,102102.28
2019-04-20T03:55:41.895Z,102100.09
2019-04-20T03:58:19.732Z,102093.56
2019-04-20T04:00:55.690Z,102101.55
2019-04-20T04:03:41.111Z,102105.61
2019-04-20T04:06:07.684Z,102101.39
2019-04-20T04:08:34.404Z,102107.44
2019-04-20T04:11:18.919Z,102103.20
2019-04-20T04:13:29.199Z,102101.59
2019-04-20T04:16:03.264Z,102098.32
2019-04-20T04:18:37.280Z,102100.49
2019-04-20T04:21:07.954Z,102101.85
2019-04-20T04:23:49.073Z,102107.54
2019-04-20T04:26:21.994Z,102098.52
2019-04-20T04:28:48.343Z,102100.73
2019-04-20T04:31:25.972Z,102101.64
2019-04-20T04:33:58.076Z,102104.44
2019-04-20T04:36:28.992Z,102115.27
2019-04-20T04:39:03.639Z,102107.55
2019-04-20T04:41:31.093Z,102110.72
2019-04-20T04:44:06.065Z,102116.50
2019-04-20T04:46:16.532Z,102110.42
2019-04-20T04:48:49.188Z,102118.31
2019-04-20T04:51:22.966Z,102124.96
2019-04-20T04:53:59.361Z,102123.73
2019-04-20T04:56:23.412Z,102122.80
2019-04-20T04:58:51.809Z,102128.87
2019-04-20T05:01:25.940Z,102122.25
2019-04-20T05:04:25.131Z,102128.83
2019-04-20T05:06:41.428Z,102128.41
2019-04-20T05:09:00.855Z,102120.68
2019-04-20T05:11:28.040Z,102123.42
2019-04-20T05:14:03.364Z,102125.48
2019-04-20T05:16:46.032Z,102131.80
2019-04-20T05:19:26.200Z,102130.80
2019-04-20T05:21:58.677Z,102131.58
2019-04-20T05:24:31.731Z,102130.09
2019-04-20T05:27:13.608Z,102134.79
2019-04-20T05:29:25.397Z,102141.77
2019-04-20T05:31:59.960Z,102133.88
2019-04-20T05:34:45.125Z,102131.39
2019-04-20T05:37:23.706Z,102128.32
2019-04-20T05:39:50.965Z,102128.06
2019-04-20T05:42:23.200Z,102135.79
2019-04-20T05:44:54.149Z,102135.34
2019-04-20T05:47:21.677Z,102137.97
2019-04-20T05:49:50.005Z,102136.59
2019-04-20T05:52:36.116Z,102129.91
2019-04-20T05:54:56.267Z,102131.09
2019-04-20T05:57:30.246Z,102134.87
2019-04-20T06:00:09.611Z,102134.83
2019-04-20T06:02:32.084Z,102129.01
2019-04-20T06:05:04.057Z,102138.41
2019-04-20T06:07:35.844Z,102136.02
2019-04-20T06:10:06.229Z,102131.61
2019-04-20T06:12:35.806Z,102139.83
2019-04-20T06:15:05.575Z,102134.30
2019-04-20T06:17:59.634Z,102132.36
2019-04-20T06:20:37.949Z,102129.70
2019-04-20T06:23:11.908Z,102125.58
2019-04-20T06:26:01.425Z,102126.20
2019-04-20T06:28:12.771Z,102138.69
2019-04-20T06:30:35.373Z,102142.48
2019-04-20T06:39:16.094Z,102141.11
2019-04-20T06:42:05.752Z,102130.77
2019-04-20T06:44:16.503Z,102141.61
2019-04-20T06:46:57.322Z,102139.21
2019-04-20T06:49:25.144Z,102135.95
2019-04-20T06:51:52.944Z,102136.62
2019-04-20T06:54:19.886Z,102132.50
2019-04-20T06:57:00.239Z,102133.85
2019-04-20T06:59:42.230Z,102135.30
2019-04-20T07:02:11.187Z,102130.85
2019-04-20T07:04:41.993Z,102132.83
2019-04-20T07:07:10.187Z,102136.02
2019-04-20T07:09:46.455Z,102139.41
2019-04-20T07:12:06.734Z,102136.83
2019-04-20T07:14:35.935Z,102135.05
2019-04-20T07:17:20.615Z,102137.45
2019-04-20T07:19:44.471Z,102137.47
2019-04-20T07:24:59.270Z,102142.54
2019-04-20T07:27:25.907Z,102146.52
2019-04-20T07:30:00.582Z,102145.94
2019-04-20T07:32:17.809Z,102147.17
2019-04-20T07:34:55.779Z,102144.04
2019-04-20T07:38:03.190Z,102138.13
2019-04-20T07:40:11.719Z,102129.44
2019-04-20T07:42:43.798Z,102123.72
2019-04-20T07:45:16.698Z,102126.16
2019-04-20T07:47:45.917Z,102135.48
2019-04-20T07:50:09.059Z,102124.66
2019-04-20T07:52:40.842Z,102130.80
2019-04-20T07:55:33.283Z,102133.40
2019-04-20T07:57:44.121Z,102131.11
2019-04-20T08:00:21.386Z,102123.10
2019-04-20T08:03:12.175Z,102124.53
2019-04-20T08:05:36.354Z,102123.01
2019-04-20T08:08:17.138Z,102127.47
2019-04-20T08:10:42.754Z,102114.74
2019-04-20T08:13:30.182Z,102126.25
2019-04-20T08:15:49.178Z,102122.28
2019-04-20T08:20:52.839Z,102115.84
2019-04-20T08:23:23.139Z,102113.38
2019-04-20T08:25:47.399Z,102114.58
2019-04-20T08:28:22.695Z,102103.95
2019-04-20T08:31:08.877Z,102115.08
2019-04-20T08:33:55.282Z,102110.69
2019-04-20T08:36:22.787Z,102117.14
2019-04-20T08:41:20.556Z,102107.47
2019-04-20T08:46:26.555Z,102104.49
2019-04-20T08:48:58.144Z,102101.14
2019-04-20T08:51:34.689Z,102101.72
2019-04-20T08:53:58.926Z,102104.37
2019-04-20T08:56:25.919Z,102095.83
2019-04-20T08:58:43.529Z,102105.23
2019-04-20T09:01:20.040Z,102102.44
2019-04-20T09:03:56.446Z,102102.36
2019-04-20T09:06:33.638Z,102099.20
2019-04-20T09:08:59.649Z,102095.19
2019-04-20T09:11:45.179Z,102091.33
2019-04-20T09:13:55.755Z,102090.61
2019-04-20T09:16:26.971Z,102090.53
2019-04-20T09:18:59.996Z,102089.28
2019-04-20T09:21:35.551Z,102093.83
2019-04-20T09:24:22.846Z,102087.16
2019-04-20T09:26:42.864Z,102084.30
2019-04-20T09:29:13.721Z,102086.92
2019-04-20T09:31:43.288Z,102088.19
2019-04-20T09:34:22.013Z,102096.09
2019-04-20T09:36:51.331Z,102086.82
2019-04-20T09:39:25.643Z,102087.69
2019-04-20T09:42:05.808Z,102086.56
2019-04-20T09:44:40.900Z,102085.66
2019-04-20T09:47:10.075Z,102082.70
2019-04-20T09:49:48.108Z,102080.41
2019-04-20T09:52:21.245Z,102083.28
2019-04-20T09:54:59.276Z,102083.53
2019-04-20T09:57:33.631Z,102089.21
2019-04-20T10:00:10.224Z,102079.41
2019-04-20T10:02:24.863Z,102078.60
2019-04-20T10:04:51.468Z,102068.98
2019-04-20T10:07:25.792Z,102077.11
2019-04-20T10:09:53.888Z,102075.70
2019-04-20T10:12:24.141Z,102066.12
2019-04-20T10:14:57.591Z,102071.48
2019-04-20T10:17:29.656Z,102068.22
2019-04-20T10:19:57.731Z,102054.83
2019-04-20T10:22:28.716Z,102062.86
2019-04-20T10:24:58.322Z,102060.66
2019-04-20T10:27:28.459Z,102060.77
2019-04-20T10:30:01.080Z,102067.54
2019-04-20T10:32:38.806Z,102064.03
2019-04-20T10:35:02.491Z,102058.97
2019-04-20T10:37:33.611Z,102052.06
2019-04-20T10:40:04.808Z,102044.94
2019-04-20T10:42:36.278Z,102053.87
2019-04-20T10:45:08.744Z,102048.30
2019-04-20T10:47:38.978Z,102046.97
2019-04-20T10:50:11.207Z,102050.86
2019-04-20T10:52:41.667Z,102038.81
2019-04-20T10:55:12.485Z,102036.87
2019-04-20T10:57:43.786Z,102038.36
2019-04-20T11:00:15.478Z,102027.18
2019-04-20T11:02:47.418Z,102029.39
2019-04-20T11:05:16.971Z,102027.17
2019-04-20T11:07:46.775Z,102029.19
2019-04-20T11:10:25.002Z,102026.38
2019-04-20T11:12:50.527Z,102025.91
2019-04-20T11:15:21.056Z,102017.05
2019-04-20T11:17:51.389Z,102020.28
2019-04-20T11:20:21.525Z,102011.58
2019-04-20T11:22:52.571Z,102012.08
2019-04-20T11:25:24.295Z,102008.53
2019-04-20T11:27:54.450Z,102013.69
2019-04-20T11:30:25.775Z,102003.72
2019-04-20T11:32:56.036Z,102001.51
2019-04-20T11:35:32.660Z,101999.30
2019-04-20T11:37:58.305Z,101992.75
2019-04-20T11:40:28.850Z,101998.62
2019-04-20T11:42:59.581Z,101988.34
2019-04-20T11:45:30.817Z,101988.07
2019-04-20T11:48:01.187Z,101987.67
2019-04-20T11:50:31.604Z,101979.66
2019-04-20T11:53:01.552Z,101980.86
2019-04-20T11:55:31.775Z,101982.68
2019-04-20T11:58:01.945Z,101980.91
2019-04-20T12:00:54.963Z,101969.97
2019-04-20T12:03:25.996Z,101964.37
2019-04-20T12:05:53.202Z,101971.10
2019-04-20T12:08:20.710Z,101967.83
2019-04-20T12:10:56.486Z,101963.88
2019-04-20T12:13:24.690Z,101962.84
2019-04-20T12:15:55.994Z,101964.31
2019-04-20T12:18:25.636Z,101961.02
2019-04-20T12:20:56.753Z,101958.34
2019-04-20T12:23:28.455Z,101955.45
2019-04-20T12:25:59.796Z,101955.87
2019-04-20T12:28:29.729Z,101951.37
2019-04-20T12:31:04.141Z,101942.80
2019-04-20T12:33:30.786Z,101934.22
2019-04-20T12:36:02.437Z,101947.27
2019-04-20T12:38:32.880Z,101942.11
2019-04-20T12:41:04.834Z,101936.30
2019-04-20T12:43:34.192Z,101938.27
2019-04-20T12:46:03.803Z,101925.89
2019-04-20T12:48:33.975Z,101935.20
2019-04-20T12:51:03.827Z,101931.21
2019-04-20T12:53:34.831Z,101935.57
2019-04-20T12:56:06.507Z,101933.81
2019-04-20T12:58:36.656Z,101930.91
2019-04-20T13:01:07.004Z,101924.03
2019-04-20T13:03:37.348Z,101927.62
2019-04-20T13:06:07.995Z,101923.84
2019-04-20T13:08:43.421Z,101914.97
2019-04-20T13:11:28.738Z,101915.55
2019-04-20T13:14:30.449Z,101920.06
2019-04-20T13:17:02.006Z,101911.09
2019-04-20T13:19:33.193Z,101911.63
2019-04-20T13:22:03.499Z,101902.88
2019-04-20T13:24:33.123Z,101908.31
2019-04-20T13:27:02.956Z,101899.90
2019-04-20T13:29:33.181Z,101907.44
2019-04-20T13:32:02.884Z,101895.01
2019-04-20T13:34:33.750Z,101897.31
2019-04-20T13:37:04.344Z,101888.92
2019-04-20T13:39:35.116Z,101890.14
2019-04-20T13:42:12.254Z,101874.03
2019-04-20T13:44:36.930Z,101874.80
2019-04-20T13:47:07.351Z,101878.74
2019-04-20T13:49:37.054Z,101876.22
2019-04-20T13:52:08.668Z,101870.36
2019-04-20T13:54:40.047Z,101873.03
2019-04-20T13:57:11.970Z,101855.39
2019-04-20T13:59:46.185Z,101861.70
2019-04-20T14:02:26.723Z,101855.88
2019-04-20T14:04:59.022Z,101856.73
2019-04-20T14:07:31.406Z,101859.44
2019-04-20T14:10:01.895Z,101852.27
2019-04-20T14:12:37.084Z,101855.17
2019-04-20T14:15:06.884Z,101855.62
2019-04-20T14:17:37.179Z,101856.87
2019-04-20T14:20:13.389Z,101850.68
2019-04-20T14:22:41.015Z,101843.81
2019-04-20T14:25:11.195Z,101835.94
2019-04-20T14:27:42.588Z,101841.51
2019-04-20T14:30:13.451Z,101846.25
2019-04-20T14:32:44.949Z,101835.48
2019-04-20T14:35:16.667Z,101834.92
2019-04-20T14:37:47.773Z,101830.69
2019-04-20T14:40:18.677Z,101826.65
2019-04-20T14:42:51.696Z,101824.06
2019-04-20T14:45:20.757Z,101830.37
2019-04-20T14:47:51.702Z,101824.28
2019-04-20T14:50:23.343Z,101820.20
2019-04-20T14:52:53.473Z,101823.69
2019-04-20T14:55:24.207Z,101822.64
2019-04-20T14:57:55.316Z,101815.77
2019-04-20T15:00:53.301Z,101819.81
2019-04-20T15:03:37.351Z,101812.28
2019-04-20T15:06:09.974Z,101819.06
2019-04-20T15:08:40.749Z,101810.34
2019-04-20T15:11:10.600Z,101808.30
2019-04-20T15:13:40.658Z,101803.16
2019-04-20T15:16:10.849Z,101805.42
2019-04-20T15:18:56.293Z,101803.53
2019-04-20T15:21:29.160Z,101802.27
2019-04-20T15:23:59.496Z,101796.22
2019-04-20T15:26:30.622Z,101797.19
2019-04-20T15:29:02.163Z,101800.85
2019-04-20T15:31:32.736Z,101794.43
2019-04-20T15:34:03.298Z,101790.20
2019-04-20T15:36:36.132Z,101795.87
2019-04-20T15:39:09.296Z,101789.31
2019-04-20T15:41:39.239Z,101785.53
2019-04-20T15:44:09.231Z,101781.38
2019-04-20T15:46:40.038Z,101784.20
2019-04-20T15:49:10.316Z,101790.02
2019-04-20T15:51:40.012Z,101784.94
2019-04-20T15:54:11.410Z,101781.96
2019-04-20T15:56:48.911Z,101786.34
2019-04-20T15:59:12.890Z,101774.58
2019-04-20T16:01:49.617Z,101786.73
2019-04-20T16:04:40.783Z,101780.57
2019-04-20T16:07:10.885Z,101774.75
2019-04-20T16:09:41.818Z,101774.61
2019-04-20T16:12:13.028Z,101777.67
2019-04-20T16:14:43.862Z,101779.38
2019-04-20T16:17:15.071Z,101772.11
2019-04-20T16:19:54.246Z,101780.59
2019-04-20T16:22:19.807Z,101769.20
2019-04-20T16:24:59.661Z,101774.91
2019-04-20T16:27:29.740Z,101773.72
2019-04-20T16:29:59.930Z,101765.56
2019-04-20T16:32:30.543Z,101765.08
2019-04-20T16:35:02.748Z,101767.16
2019-04-20T16:37:32.747Z,101765.00
2019-04-20T16:40:04.822Z,101764.63
2019-04-20T16:42:38.474Z,101761.50
2019-04-20T16:45:09.454Z,101764.44
2019-04-20T16:47:39.960Z,101763.25
2019-04-20T16:50:11.092Z,101761.08
2019-04-20T16:52:41.324Z,101764.95
2019-04-20T16:55:14.626Z,101766.79
2019-04-20T16:57:47.833Z,101763.61
2019-04-20T17:00:19.815Z,101751.31
2019-04-20T17:02:50.174Z,101749.63
2019-04-20T17:05:20.990Z,101755.47
2019-04-20T17:07:53.138Z,101750.88
2019-04-20T17:10:23.977Z,101751.23
2019-04-20T17:12:53.794Z,101750.05
2019-04-20T17:15:23.892Z,101751.39
2019-04-20T17:17:55.358Z,101749.58
2019-04-20T17:20:25.751Z,101758.67
2019-04-20T17:22:56.328Z,101758.19
2019-04-20T17:25:26.031Z,101762.80
2019-04-20T17:28:13.382Z,101761.33
2019-04-20T17:30:49.191Z,101759.61
2019-04-20T17:33:25.758Z,101756.33
2019-04-20T17:36:03.246Z,101763.83
2019-04-20T17:38:24.871Z,101765.01
2019-04-20T17:41:08.648Z,101758.47
2019-04-20T17:43:33.274Z,101766.07
2019-04-20T17:46:06.920Z,101765.10
2019-04-20T17:48:42.190Z,101764.84
2019-04-20T17:51:23.966Z,101771.81
2019-04-20T17:53:52.799Z,101771.92
2019-04-20T17:56:18.115Z,101764.78
2019-04-20T17:58:48.020Z,101769.77
2019-04-20T18:01:29.443Z,101772.41
2019-04-20T18:04:19.730Z,101774.19
2019-04-20T18:06:39.447Z,101771.24
2019-04-20T18:09:06.629Z,101774.25
2019-04-20T18:11:31.270Z,101773.11
2019-04-20T18:14:06.527Z,101776.69
2019-04-20T18:16:56.804Z,101779.69
2019-04-20T18:19:21.994Z,101783.42
2019-04-20T18:21:53.734Z,101783.98
2019-04-20T18:24:50.961Z,101777.35
2019-04-20T18:27:18.765Z,101781.30
2019-04-20T18:29:45.562Z,101782.58
2019-04-20T18:31:59.855Z,101782.24
2019-04-20T18:34:31.932Z,101783.64
2019-04-20T18:37:07.481Z,101779.61
2019-04-20T18:39:42.083Z,101779.44
2019-04-20T18:42:13.021Z,101779.72
2019-04-20T18:44:57.132Z,101785.45
2019-04-20T18:47:30.142Z,101779.50
2019-04-20T18:49:50.498Z,101783.16
2019-04-20T18:52:11.571Z,101782.16
2019-04-20T18:54:44.915Z,101790.51
2019-04-20T18:57:18.186Z,101791.52
2019-04-20T18:59:50.471Z,101790.48
2019-04-20T19:02:22.769Z,101784.96
2019-04-20T19:04:48.232Z,101792.74
2019-04-20T19:07:19.638Z,101791.06
2019-04-20T19:09:53.234Z,101799.19
2019-04-20T19:12:34.112Z,101793.70
2019-04-20T19:15:04.995Z,101793.63
2019-04-20T19:17:51.391Z,101790.72
2019-04-20T19:20:23.425Z,101799.39
2019-04-20T19:22:52.719Z,101801.03
2019-04-20T19:25:27.144Z,101806.88
2019-04-20T19:27:56.560Z,101800.09
2019-04-20T19:30:35.204Z,101807.39
2019-04-20T19:33:14.481Z,101804.86
2019-04-20T19:35:40.882Z,101804.52
2019-04-20T19:38:09.856Z,101807.20
2019-04-20T19:40:45.396Z,101810.79
2019-04-20T19:43:15.608Z,101811.76
2019-04-20T19:45:56.592Z,101812.50
2019-04-20T19:48:22.101Z,101818.22
2019-04-20T19:51:00.782Z,101816.23
2019-04-20T19:53:32.449Z,101817.16
2019-04-20T19:55:54.861Z,101818.86
2019-04-20T19:58:26.520Z,101820.09
2019-04-20T20:00:53.649Z,101819.66
2019-04-20T20:03:23.751Z,101819.45
2019-04-20T20:05:54.806Z,101825.91
2019-04-20T20:08:29.558Z,101821.91
2019-04-20T20:11:00.885Z,101828.25
2019-04-20T20:13:36.120Z,101823.89
2019-04-20T20:16:06.029Z,101816.16
2019-04-20T20:18:46.720Z,101824.83
2019-04-20T20:21:16.908Z,101821.80
2019-04-20T20:23:34.178Z,101820.37
2019-04-20T20:26:07.197Z,101826.25
2019-04-20T20:28:43.531Z,101828.22
2019-04-20T20:31:17.042Z,101829.73
2019-04-20T20:33:54.645Z,101825.19
2019-04-20T20:36:15.723Z,101823.94
2019-04-20T20:38:45.754Z,101824.25
2019-04-20T20:41:20.607Z,101828.97
2019-04-20T20:43:56.438Z,101830.30
2019-04-20T20:46:23.979Z,101821.97
2019-04-20T20:49:17.706Z,101818.93
2019-04-20T20:51:44.291Z,101828.37
2019-04-20T20:53:57.690Z,101824.55
2019-04-20T20:56:25.059Z,101821.97
2019-04-20T20:59:02.984Z,101825.25
2019-04-20T21:01:26.473Z,101822.36
2019-04-20T21:03:56.599Z,101828.84
2019-04-20T21:06:26.646Z,101837.57
2019-04-20T21:08:59.981Z,101829.79
2019-04-20T21:11:31.432Z,101829.27
2019-04-20T21:13:59.397Z,101834.00
2019-04-20T21:16:31.921Z,101833.25
2019-04-20T21:19:17.233Z,101831.46
2019-04-20T21:21:42.250Z,101831.53
2019-04-20T21:24:11.117Z,101830.97
2019-04-20T21:26:40.939Z,101827.86
2019-04-20T21:29:08.183Z,101821.06
2019-04-20T21:31:38.634Z,101819.08
2019-04-20T21:34:13.128Z,101820.23
2019-04-20T21:36:40.887Z,101819.33
2019-04-20T21:39:19.092Z,101819.86
2019-04-20T21:41:50.923Z,101817.61
2019-04-20T21:44:24.147Z,101816.85
2019-04-20T21:46:49.621Z,101816.71
2019-04-20T21:49:32.146Z,101810.69
2019-04-20T21:51:55.418Z,101817.71
2019-04-20T21:54:20.168Z,101820.21
2019-04-20T21:56:56.319Z,101819.56
2019-04-20T21:59:28.098Z,101822.05
2019-04-20T22:01:58.515Z,101821.42
2019-04-20T22:04:25.146Z,101809.69
2019-04-20T22:06:56.217Z,101818.52
2019-04-20T22:09:34.792Z,101819.07
2019-04-20T22:11:58.109Z,101819.27
2019-04-20T22:14:32.218Z,101816.92
2019-04-20T22:17:01.841Z,101810.12
2019-04-20T22:19:41.872Z,101804.59
2019-04-20T22:22:12.914Z,101809.95
2019-04-20T22:24:50.578Z,101809.00
2019-04-20T22:27:14.467Z,101812.61
2019-04-20T22:29:36.697Z,101810.58
2019-04-20T22:32:12.731Z,101806.78
2019-04-20T22:34:37.774Z,101815.13
2019-04-20T22:37:09.726Z,101811.41
2019-04-20T22:39:45.689Z,101804.70
2019-04-20T22:42:14.371Z,101802.53
2019-04-20T22:44:43.251Z,101812.81
2019-04-20T22:47:20.799Z,101809.14
2019-04-20T22:50:00.001Z,101808.23
2019-04-20T22:52:30.454Z,101804.78
2019-04-20T22:55:10.090Z,101797.45
2019-04-20T22:57:36.948Z,101802.63
2019-04-20T22:59:59.388Z,101805.21
2019-04-20T23:02:23.642Z,101793.83
2019-04-20T23:04:53.232Z,101779.39
2019-04-20T23:07:23.110Z,101784.24
2019-04-20T23:09:56.471Z,101778.87
2019-04-20T23:12:26.899Z,101773.92
2019-04-20T23:14:56.489Z,101786.50
2019-04-20T23:17:33.571Z,101780.19
2019-04-20T23:20:01.434Z,101776.09
2019-04-20T23:22:36.842Z,101771.77
2019-04-20T23:25:00.075Z,101762.98
2019-04-20T23:27:32.105Z,101762.33
2019-04-20T23:30:05.886Z,101763.49
2019-04-20T23:32:33.747Z,101757.91
2019-04-20T23:35:09.744Z,101757.35
2019-04-20T23:37:38.548Z,101750.34
2019-04-20T23:40:10.968Z,101750.84
2019-04-20T23:42:51.611Z,101748.42
2019-04-20T23:45:37.222Z,101743.42
2019-04-20T23:48:05.323Z,101743.17
2019-04-20T23:50:50.209Z,101737.67
2019-04-20T23:53:27.365Z,101737.58
2019-04-20T23:55:39.359Z,101741.30
2019-04-20T23:58:12.238Z,101738.92
